Time;durP1;ratioP1;P1;durP2;ratioP2;P2;SDS_P1;SDS_P2;PMS_P1;PMS_P2;Temp;Humidity;BMP_temperature;BMP_pressure;BME280_temperature;BME280_humidity;BME280_pressure;Samples;Min_cycle;Max_cycle;Signal;HPM_P1;HPM_P2
2021/12/27 00:01:38;;;;;;;;;73.00;57.50;;;;;-4.64;92.80;99226.41;6278070;20;2867947;-42
2021/12/27 00:04:06;;;;;;;;;78.50;57.00;;;;;-4.55;91.28;99230.75;6277795;20;2500303;-42
2021/12/27 00:06:34;;;;;;;;;77.00;56.00;;;;;-4.73;91.25;99236.13;6277484;20;2500721;-42
2021/12/27 00:09:03;;;;;;;;;73.80;57.60;;;;;-4.76;93.41;99244.00;6280381;20;3615955;-41
2021/12/27 00:11:31;;;;;;;;;84.50;61.00;;;;;-4.48;92.68;99237.66;6274385;20;2500273;-42
2021/12/27 00:13:59;;;;;;;;;81.50;61.00;;;;;-4.88;93.18;99237.09;6274835;20;2500280;-42
2021/12/27 00:16:28;;;;;;;;;82.00;61.00;;;;;-4.95;94.11;99235.38;6277463;20;2823200;-41
2021/12/27 00:18:56;;;;;;;;;70.00;53.00;;;;;-4.96;94.68;99236.28;6272396;20;2492958;-41
2021/12/27 00:21:25;;;;;;;;;76.00;60.00;;;;;-4.61;93.14;99229.91;6279008;20;3603430;-41
2021/12/27 00:23:52;;;;;;;;;61.50;48.50;;;;;-4.90;94.35;99228.38;6283342;20;2874259;-41
2021/12/27 00:26:22;;;;;;;;;92.33;66.00;;;;;-4.44;92.09;99222.78;6284846;20;3675456;-41
2021/12/27 00:28:51;;;;;;;;;80.00;63.50;;;;;-4.81;92.56;99216.97;6311563;20;2500267;-41
2021/12/27 00:31:21;;;;;;;;;0.00;0.00;;;;;-4.87;93.65;99225.72;6322661;20;2694202;-41
2021/12/27 00:33:50;;;;;;;;;66.50;45.50;;;;;-5.36;95.26;99228.66;6286426;20;2890928;-44
2021/12/27 00:36:19;;;;;;;;;85.33;62.33;;;;;-5.40;96.89;99225.16;6284826;20;2898331;-42
2021/12/27 00:38:49;;;;;;;;;85.67;61.67;;;;;-5.34;97.09;99222.53;6314463;20;2882583;-42
2021/12/27 00:41:19;;;;;;;;;87.00;64.67;;;;;-5.25;97.64;99225.97;6314493;20;2901471;-43
2021/12/27 00:43:48;;;;;;;;;96.33;72.00;;;;;-4.96;97.02;99229.28;6314528;20;3656500;-41
2021/12/27 00:46:18;;;;;;;;;91.00;66.00;;;;;-4.82;95.36;99230.94;6315990;20;3658617;-41
2021/12/27 00:48:46;;;;;;;;;85.00;66.00;;;;;-4.94;94.79;99231.91;6311371;20;2502367;-41
2021/12/27 00:51:15;;;;;;;;;91.00;69.00;;;;;-4.95;94.91;99225.81;6282742;20;2899212;-41
2021/12/27 00:53:45;;;;;;;;;100.33;74.33;;;;;-5.06;95.77;99232.81;6315719;20;3685620;-41
2021/12/27 00:56:13;;;;;;;;;86.00;66.00;;;;;-5.13;96.35;99232.00;6308797;20;2502397;-39
2021/12/27 00:58:43;;;;;;;;;92.67;67.33;;;;;-4.73;94.12;99233.50;6282712;20;2905907;-41
2021/12/27 01:01:10;;;;;;;;;80.00;64.00;;;;;-4.58;93.59;99235.13;6312112;20;2502454;-41
2021/12/27 01:03:40;;;;;;;;;94.67;65.33;;;;;-4.75;93.72;99230.00;6283626;20;3655460;-41
2021/12/27 01:06:09;;;;;;;;;85.00;63.50;;;;;-4.70;93.25;99229.09;6315855;20;2891441;-41
2021/12/27 01:08:37;;;;;;;;;77.00;56.00;;;;;-4.74;92.75;99218.66;6279488;20;2499270;-42
2021/12/27 01:16:31;;;;;;;;;61.50;48.50;;;;;-5.21;97.19;99222.44;6280378;20;2862786;-42
2021/12/27 01:18:59;;;;;;;;;54.50;48.00;;;;;-5.47;96.85;99233.94;6278023;20;2505523;-43
2021/12/27 01:21:28;;;;;;;;;51.67;39.00;;;;;-5.52;98.21;99230.47;6282318;20;3602388;-41
2021/12/27 01:23:57;;;;;;;;;57.50;45.50;;;;;-5.74;98.48;99237.50;6281630;20;2877398;-41
2021/12/27 01:26:26;;;;;;;;;60.50;49.00;;;;;-5.31;97.92;99242.56;6280214;20;2510916;-41
2021/12/27 01:29:00;;;;;;;;;70.00;51.00;;;;;-5.23;98.15;99242.53;6279830;20;2870058;-42
2021/12/27 01:31:28;;;;;;;;;54.50;45.00;;;;;-5.14;96.28;99235.47;6280222;20;2510710;-40
2021/12/27 01:33:57;;;;;;;;;50.00;42.00;;;;;-5.41;96.38;99227.78;6280418;20;2868985;-41
2021/12/27 01:36:31;;;;;;;;;63.50;47.00;;;;;-5.16;97.35;99226.81;6283448;20;2875283;-41
2021/12/27 01:39:05;;;;;;;;;71.00;54.00;;;;;-5.62;96.86;99220.91;6279861;20;2497164;-43
2021/12/27 01:41:34;;;;;;;;;78.50;57.00;;;;;-5.55;96.21;99223.50;6281885;20;2889850;-41
2021/12/27 01:44:03;;;;;;;;;64.00;49.00;;;;;-5.19;95.08;99216.31;6282657;20;2882513;-41
2021/12/27 01:46:31;;;;;;;;;42.00;41.00;;;;;-5.39;94.94;99223.44;6281849;20;2510846;-40
2021/12/27 01:49:00;;;;;;;;;56.00;47.00;;;;;-5.08;94.57;99221.53;6282227;20;2855498;-40
2021/12/27 01:51:30;;;;;;;;;61.00;48.00;;;;;-4.98;93.71;99219.69;6283974;20;2506531;-40
2021/12/27 01:53:59;;;;;;;;;44.00;32.50;;;;;-4.98;93.12;99217.06;6283488;20;2875423;-40
2021/12/27 01:56:27;;;;;;;;;50.00;41.50;;;;;-4.80;92.18;99219.56;6278293;20;2506525;-40
2021/12/27 01:58:58;;;;;;;;;56.00;41.50;;;;;-4.94;92.01;99211.81;6277236;20;2502327;-41
2021/12/27 02:01:27;;;;;;;;;67.00;48.00;;;;;-4.84;91.84;99207.41;6280966;20;2874298;-41
2021/12/27 02:03:57;;;;;;;;;63.00;48.50;;;;;-4.90;90.64;99217.88;6282095;20;2873169;-43
2021/12/27 02:06:27;;;;;;;;;63.00;48.50;;;;;-4.88;91.05;99213.53;6282926;20;2880467;-41
2021/12/27 02:08:56;;;;;;;;;67.00;48.50;;;;;-4.74;89.28;99214.31;6281766;20;2888498;-42
2021/12/27 02:11:24;;;;;;;;;57.00;48.00;;;;;-4.99;89.70;99221.44;6275318;20;2508598;-42
2021/12/27 02:13:53;;;;;;;;;44.50;38.00;;;;;-4.83;89.01;99216.13;6281317;20;2873235;-41
2021/12/27 02:16:23;;;;;;;;;56.00;45.00;;;;;-4.83;88.93;99216.13;6279062;20;2875259;-41
2021/12/27 02:18:54;;;;;;;;;71.67;49.33;;;;;-4.64;89.39;99221.19;6280115;20;3647196;-41
2021/12/27 02:21:25;;;;;;;;;67.00;49.00;;;;;-4.54;88.45;99221.13;6311923;20;2878377;-41
2021/12/27 02:23:55;;;;;;;;;63.67;50.33;;;;;-4.43;88.21;99230.63;6279647;20;3595038;-42
2021/12/27 02:26:23;;;;;;;;;69.50;51.50;;;;;-4.48;87.83;99221.06;6278133;20;2508708;-40
2021/12/27 02:28:51;;;;;;;;;69.50;50.00;;;;;-4.68;89.57;99229.97;6278750;20;2498223;-41
2021/12/27 02:31:20;;;;;;;;;71.50;51.50;;;;;-4.44;88.51;99218.41;6279278;20;2882594;-42
2021/12/27 02:33:50;;;;;;;;;88.67;66.00;;;;;-5.08;89.63;99219.78;6282939;20;2901451;-41
2021/12/27 02:36:18;;;;;;;;;69.50;53.50;;;;;-4.96;89.05;99228.41;6308387;20;2499331;-41
2021/12/27 02:38:46;;;;;;;;;67.00;49.67;;;;;-5.13;90.81;99226.78;6278680;20;2867974;-41
2021/12/27 02:41:15;;;;;;;;;70.00;50.00;;;;;-5.09;90.74;99227.63;6310967;20;2892024;-41
2021/12/27 02:43:44;;;;;;;;;69.00;53.33;;;;;-4.49;89.65;99229.81;6279298;20;3611695;-42
2021/12/27 02:46:15;;;;;;;;;64.00;49.00;;;;;-4.73;91.05;99225.66;6281611;20;2856640;-41
2021/12/27 02:48:48;;;;;;;;;66.50;48.00;;;;;-4.59;90.34;99225.53;6279092;20;2503394;-41
2021/12/27 02:51:19;;;;;;;;;69.00;48.67;;;;;-4.94;91.89;99226.66;6278670;20;2883051;-40
2021/12/27 02:53:50;;;;;;;;;66.00;45.00;;;;;-4.80;90.22;99218.72;6312604;20;2883660;-40
2021/12/27 02:56:19;;;;;;;;;55.00;45.00;;;;;-4.50;90.32;99226.34;6308939;20;2508591;-41
2021/12/27 02:58:49;;;;;;;;;59.50;44.00;;;;;-4.57;89.67;99221.16;6276784;20;2500267;-42
2021/12/27 03:01:21;;;;;;;;;61.50;48.00;;;;;-4.44;90.17;99218.41;6276422;20;2500267;-41
2021/12/27 03:03:52;;;;;;;;;59.00;45.00;;;;;-4.59;90.03;99212.44;6282058;20;2877355;-41
2021/12/27 03:06:21;;;;;;;;;57.50;45.00;;;;;-4.74;90.94;99201.22;6282038;20;2867975;-41
2021/12/27 03:08:51;;;;;;;;;66.67;50.00;;;;;-4.63;91.08;99204.59;6280704;20;2884655;-42
2021/12/27 03:11:19;;;;;;;;;57.00;46.00;;;;;-5.14;94.01;99204.09;6308646;20;2508619;-41
2021/12/27 03:13:51;;;;;;;;;51.67;36.33;;;;;-5.29;96.05;99191.13;6280102;20;2885722;-41
2021/12/27 03:16:24;;;;;;;;;38.33;28.67;;;;;-4.96;96.47;99197.00;6310135;20;3597269;-41
2021/12/27 03:18:54;;;;;;;;;47.00;36.50;;;;;-5.21;96.51;99197.16;6276454;20;2502346;-41
2021/12/27 03:21:25;;;;;;;;;48.00;40.00;;;;;-5.00;96.94;99193.56;6279352;20;3602374;-41
2021/12/27 03:23:55;;;;;;;;;21.60;11.40;;;;;-4.74;96.11;99185.50;6304649;20;2810748;-42
2021/12/27 03:26:27;;;;;;;;;53.50;37.00;;;;;-4.53;95.10;99181.84;6280564;20;2884697;-42
2021/12/27 03:28:56;;;;;;;;;53.00;45.50;;;;;-4.59;94.77;99181.00;6280533;20;2864979;-40
2021/12/27 03:31:24;;;;;;;;;42.00;40.00;;;;;-4.92;94.79;99177.78;6281905;20;2500271;-43
2021/12/27 03:33:55;;;;;;;;;67.00;44.33;;;;;-4.70;94.90;99178.47;6282503;20;2894054;-40
2021/12/27 03:36:23;;;;;;;;;44.50;38.00;;;;;-4.62;94.51;99181.91;6307462;20;2500261;-43
2021/12/27 03:38:53;;;;;;;;;46.00;41.50;;;;;-4.59;94.57;99173.16;6278628;20;2500335;-42
2021/12/27 03:41:25;;;;;;;;;50.00;41.00;;;;;-4.50;93.24;99173.03;6279053;20;2879490;-41
2021/12/27 03:43:54;;;;;;;;;57.00;46.00;;;;;-4.61;92.79;99181.00;6279397;20;2865900;-42
2021/12/27 03:46:22;;;;;;;;;54.50;45.00;;;;;-4.55;91.76;99180.97;6280189;20;2881567;-42
2021/12/27 03:48:52;;;;;;;;;63.67;45.33;;;;;-4.64;91.90;99181.03;6280445;20;2887981;-43
2021/12/27 03:51:20;;;;;;;;;58.50;48.00;;;;;-4.70;92.98;99184.56;6306741;20;2508756;-41
2021/12/27 03:53:51;;;;;;;;;52.00;42.00;;;;;-4.53;92.30;99180.94;6279946;20;2861825;-42
2021/12/27 03:56:23;;;;;;;;;65.67;45.00;;;;;-4.48;92.57;99187.00;6277459;20;2887946;-41
2021/12/27 03:59:18;;;;;;;;;61.00;47.50;;;;;-4.33;92.09;99173.75;6315947;20;2866977;-41
2021/12/27 04:01:44;;;;;;;;;63.50;51.00;;;;;-4.48;91.08;99179.16;6283518;20;2879410;-40
2021/12/27 04:04:13;;;;;;;;;57.00;47.50;;;;;-4.54;91.89;99179.22;6285889;20;2860095;-42
2021/12/27 04:06:41;;;;;;;;;62.00;49.00;;;;;-4.83;91.76;99180.31;6280767;20;2508752;-42
2021/12/27 04:09:09;;;;;;;;;49.50;39.50;;;;;-4.70;92.28;99178.47;6283521;20;2500422;-41
2021/12/27 04:11:37;;;;;;;;;50.50;42.50;;;;;-4.55;92.10;99187.97;6280081;20;2500270;-42
2021/12/27 04:14:05;;;;;;;;;47.00;34.00;;;;;-4.68;93.71;99188.06;6287099;20;2863818;-41
2021/12/27 04:16:33;;;;;;;;;41.00;36.50;;;;;-4.88;95.58;99182.09;6280377;20;2852472;-41
2021/12/27 04:19:02;;;;;;;;;44.00;35.00;;;;;-4.80;95.42;99187.28;6284764;20;2866943;-41
2021/12/27 04:21:32;;;;;;;;;51.50;36.50;;;;;-4.89;95.54;99177.75;6279414;20;2500410;-42
2021/12/27 04:24:01;;;;;;;;;57.00;40.00;;;;;-5.12;95.17;99185.78;6284257;20;2887823;-41
2021/12/27 04:26:30;;;;;;;;;60.00;45.00;;;;;-4.64;94.79;99171.41;6315364;20;2825327;-41
2021/12/27 04:29:00;;;;;;;;;50.00;45.00;;;;;-4.57;94.75;99171.38;6283245;20;2508615;-41
2021/12/27 04:31:28;;;;;;;;;62.00;46.50;;;;;-4.65;94.31;99171.44;6279691;20;2500263;-40
2021/12/27 04:33:56;;;;;;;;;44.00;41.00;;;;;-4.47;93.05;99166.06;6282365;20;2500266;-41
2021/12/27 04:36:25;;;;;;;;;53.50;44.00;;;;;-4.49;92.82;99167.81;6285141;20;2867036;-41
2021/12/27 04:38:53;;;;;;;;;60.50;40.00;;;;;-4.50;91.81;99166.09;6280273;20;2500258;-42
2021/12/27 04:41:23;;;;;;;;;66.50;45.00;;;;;-4.78;92.45;99165.44;6282462;20;2872176;-41
2021/12/27 04:43:52;;;;;;;;;55.33;42.33;;;;;-4.57;92.18;99171.38;6284180;20;2887870;-41
2021/12/27 04:46:23;;;;;;;;;66.00;52.00;;;;;-4.43;91.24;99164.25;6317573;20;2865978;-42
2021/12/27 04:48:52;;;;;;;;;55.00;42.50;;;;;-4.48;91.33;99166.06;6280707;20;2870052;-41
2021/12/27 04:51:22;;;;;;;;;65.00;46.33;;;;;-4.74;91.63;99161.94;6282709;20;2880707;-41
2021/12/27 04:53:52;;;;;;;;;60.50;45.50;;;;;-4.49;91.15;99162.56;6315616;20;2868078;-41
2021/12/27 04:56:21;;;;;;;;;53.00;43.00;;;;;-4.45;91.20;99166.00;6284001;20;2859677;-42
2021/12/27 04:58:50;;;;;;;;;19.75;15.25;;;;;-4.66;91.46;99167.97;6300798;20;1853561;-43
2021/12/27 05:01:20;;;;;;;;;58.50;49.00;;;;;-4.48;91.06;99158.19;6313056;20;2862757;-43
2021/12/27 05:03:48;;;;;;;;;54.50;44.00;;;;;-4.32;89.80;99165.00;6281264;20;2508592;-42
2021/12/27 05:06:17;;;;;;;;;48.00;43.00;;;;;-4.47;90.31;99165.19;6285429;20;2859605;-42
2021/12/27 05:08:48;;;;;;;;;59.50;48.50;;;;;-4.54;89.76;99160.88;6283238;20;2869063;-41
2021/12/27 05:11:17;;;;;;;;;58.00;47.50;;;;;-4.36;88.68;99162.47;6283352;20;2856610;-42
2021/12/27 05:13:47;;;;;;;;;55.00;45.00;;;;;-4.33;88.32;99165.91;6283986;20;2873180;-41
2021/12/27 05:16:16;;;;;;;;;70.33;46.00;;;;;-4.22;87.58;99169.28;6283663;20;2888885;-41
2021/12/27 05:18:45;;;;;;;;;58.00;45.50;;;;;-4.23;87.70;99170.19;6315014;20;2863812;-41
2021/12/27 05:21:14;;;;;;;;;60.50;46.00;;;;;-4.34;88.81;99177.28;6280103;20;2867959;-40
2021/12/27 05:23:42;;;;;;;;;48.00;41.00;;;;;-4.25;88.06;99171.06;6280600;20;2508597;-41
2021/12/27 05:26:10;;;;;;;;;46.00;43.00;;;;;-4.56;89.67;99175.72;6277508;20;2506654;-41
2021/12/27 05:28:39;;;;;;;;;52.00;39.50;;;;;-4.20;89.78;99175.38;6280715;20;2880476;-40
2021/12/27 05:31:09;;;;;;;;;53.00;42.50;;;;;-4.34;89.89;99168.56;6282445;20;2874202;-41
2021/12/27 05:33:38;;;;;;;;;59.00;43.00;;;;;-4.25;90.03;99177.19;6282573;20;2877321;-41
2021/12/27 05:36:07;;;;;;;;;56.00;48.00;;;;;-4.24;89.39;99178.94;6282482;20;2859775;-41
2021/12/27 05:38:36;;;;;;;;;53.00;45.50;;;;;-4.13;89.68;99170.06;6281982;20;2862796;-41
2021/12/27 05:41:05;;;;;;;;;66.50;45.00;;;;;-4.13;89.14;99164.81;6281650;20;2883593;-41
2021/12/27 05:43:34;;;;;;;;;62.00;48.00;;;;;-3.97;88.28;99166.41;6283018;20;2866025;-41
2021/12/27 05:46:03;;;;;;;;;54.00;45.50;;;;;-4.16;87.53;99170.09;6283492;20;2868002;-43
2021/12/27 05:48:31;;;;;;;;;63.00;54.00;;;;;-4.32;88.22;99167.63;6280228;20;2508625;-41
2021/12/27 05:51:00;;;;;;;;;64.00;48.50;;;;;-4.31;87.85;99166.75;6310234;20;2859635;-41
2021/12/27 05:53:28;;;;;;;;;62.00;47.00;;;;;-4.18;88.30;99175.38;6279346;20;2508594;-41
2021/12/27 05:55:57;;;;;;;;;62.67;47.67;;;;;-3.95;87.41;99169.84;6281906;20;2889833;-41
2021/12/27 05:58:26;;;;;;;;;62.00;51.00;;;;;-4.13;87.21;99170.06;6312010;20;2508579;-41
2021/12/27 06:00:55;;;;;;;;;56.00;47.00;;;;;-3.94;86.94;99176.84;6281148;20;2869019;-43
2021/12/27 06:03:24;;;;;;;;;61.50;50.00;;;;;-3.78;86.52;99175.78;6283789;20;2873302;-43
2021/12/27 06:05:52;;;;;;;;;64.50;49.50;;;;;-3.88;86.35;99170.66;6281915;20;2861732;-43
2021/12/27 06:08:20;;;;;;;;;60.50;50.50;;;;;-3.83;87.01;99176.72;6279419;20;2508774;-41
2021/12/27 06:10:48;;;;;;;;;63.50;52.00;;;;;-3.66;86.17;99173.88;6276908;20;2504584;-42
2021/12/27 06:13:17;;;;;;;;;66.00;51.50;;;;;-3.82;86.67;99176.72;6282990;20;2873177;-41
2021/12/27 06:15:45;;;;;;;;;66.00;48.00;;;;;-3.92;86.80;99171.56;6276358;20;2489871;-42
2021/12/27 06:18:14;;;;;;;;;64.67;52.33;;;;;-3.90;87.59;99173.28;6281886;20;3610830;-42
2021/12/27 06:20:42;;;;;;;;;70.50;52.50;;;;;-3.75;87.32;99167.00;6276022;20;2492005;-42
2021/12/27 06:23:10;;;;;;;;;66.00;49.00;;;;;-3.77;87.76;99168.78;6277261;20;2498231;-41
2021/12/27 06:25:38;;;;;;;;;72.33;51.67;;;;;-3.73;87.60;99169.63;6279882;20;2881930;-41
2021/12/27 06:28:07;;;;;;;;;70.00;52.00;;;;;-3.71;87.28;99173.06;6312397;20;2869053;-42
2021/12/27 06:30:35;;;;;;;;;57.50;37.50;;;;;-3.67;87.05;99161.69;6280477;20;2886911;-41
2021/12/27 06:33:06;;;;;;;;;72.00;55.00;;;;;-3.53;86.69;99165.88;6280200;20;2859083;-42
2021/12/27 06:35:34;;;;;;;;;64.00;51.00;;;;;-3.67;87.18;99164.28;6280233;20;2493087;-43
2021/12/27 06:38:03;;;;;;;;;51.00;45.00;;;;;-3.59;87.57;99151.94;6278453;20;2863978;-43
2021/12/27 06:40:32;;;;;;;;;64.50;47.50;;;;;-3.48;87.12;99151.81;6281861;20;2879509;-43
2021/12/27 06:43:00;;;;;;;;;63.00;47.00;;;;;-3.69;87.83;99155.56;6278590;20;2508704;-42
2021/12/27 06:45:28;;;;;;;;;58.50;47.00;;;;;-3.64;87.33;99148.50;6280318;20;2509032;-43
2021/12/27 06:47:56;;;;;;;;;55.00;47.00;;;;;-3.59;87.20;99149.31;6279526;20;2498171;-42
2021/12/27 06:50:25;;;;;;;;;66.50;53.00;;;;;-3.69;87.51;99150.31;6278976;20;2858707;-42
2021/12/27 06:52:53;;;;;;;;;74.00;53.00;;;;;-3.73;87.80;99151.28;6280154;20;2870088;-41
2021/12/27 06:55:21;;;;;;;;;58.00;48.00;;;;;-3.78;88.43;99159.19;6279229;20;2503655;-43
2021/12/27 06:57:49;;;;;;;;;59.00;48.50;;;;;-3.85;88.91;99158.38;6278661;20;2508607;-42
2021/12/27 07:00:17;;;;;;;;;55.00;49.00;;;;;-3.76;88.79;99155.66;6279431;20;2508622;-41
2021/12/27 07:02:46;;;;;;;;;69.67;55.33;;;;;-3.46;87.94;99156.13;6282022;20;3608650;-43
2021/12/27 07:05:17;;;;;;;;;85.33;61.00;;;;;-3.64;87.56;99153.75;6281676;20;2906582;-41
2021/12/27 07:07:47;;;;;;;;;91.00;64.00;;;;;-3.39;86.53;99155.19;6312914;20;2909659;-42
2021/12/27 07:10:19;;;;;;;;;70.00;53.50;;;;;-3.83;88.41;99153.13;6311012;20;2866944;-41
2021/12/27 07:12:48;;;;;;;;;73.00;57.00;;;;;-3.46;88.14;99147.41;6277787;20;2500261;-43
2021/12/27 07:15:17;;;;;;;;;57.67;48.67;;;;;-3.40;87.47;99150.78;6280083;20;3588750;-43
2021/12/27 07:17:45;;;;;;;;;67.00;53.00;;;;;-3.44;87.70;99149.13;6280057;20;2513879;-41
2021/12/27 07:20:13;;;;;;;;;66.00;51.00;;;;;-3.29;86.89;99149.78;6277382;20;2491987;-42
2021/12/27 07:22:41;;;;;;;;;71.00;50.50;;;;;-3.47;86.52;99150.94;6275855;20;2500302;-41
2021/12/27 07:25:10;;;;;;;;;69.50;52.00;;;;;-3.34;86.07;99148.09;6279226;20;2864935;-42
2021/12/27 07:27:39;;;;;;;;;71.50;56.00;;;;;-3.25;84.98;99149.72;6281083;20;2863784;-41
2021/12/27 07:30:11;;;;;;;;;71.00;55.00;;;;;-3.28;85.47;99151.53;6277045;20;2493038;-42
2021/12/27 07:32:40;;;;;;;;;69.00;53.00;;;;;-3.15;84.43;99145.22;6279111;20;2871133;-42
2021/12/27 07:35:10;;;;;;;;;59.00;47.00;;;;;-3.21;84.13;99147.91;6280165;20;2879543;-41
2021/12/27 07:37:40;;;;;;;;;63.50;50.50;;;;;-3.28;85.12;99141.91;6280500;20;2871142;-44
2021/12/27 07:40:11;;;;;;;;;61.00;48.00;;;;;-2.97;83.24;99144.94;6281007;20;2879424;-42
2021/12/27 07:42:40;;;;;;;;;45.67;26.67;;;;;-3.19;83.76;99130.38;6307410;20;3625326;-41
2021/12/27 07:45:09;;;;;;;;;78.00;59.00;;;;;-3.15;83.53;99137.34;6278118;20;2500373;-41
2021/12/27 07:47:38;;;;;;;;;77.00;55.50;;;;;-2.90;83.47;99138.69;6278877;20;2887765;-42
2021/12/27 07:50:08;;;;;;;;;78.00;59.50;;;;;-3.02;84.11;99131.00;6281033;20;2870035;-43
2021/12/27 07:52:38;;;;;;;;;91.00;67.00;;;;;-3.06;83.30;99136.31;6278728;20;2894115;-42
2021/12/27 07:55:08;;;;;;;;;79.00;57.50;;;;;-2.85;83.66;99135.13;6312289;20;2872138;-42
2021/12/27 07:57:36;;;;;;;;;53.00;47.00;;;;;-2.82;83.99;99148.19;6283852;20;2508877;-42
2021/12/27 08:00:07;;;;;;;;;74.50;50.50;;;;;-2.77;83.49;99144.59;6277654;20;2531504;-44
2021/12/27 08:02:36;;;;;;;;;76.00;55.00;;;;;-2.95;83.67;99135.28;6274360;20;2494113;-42
2021/12/27 08:05:06;;;;;;;;;61.00;50.00;;;;;-2.90;84.60;99138.69;6277465;20;2499229;-43
2021/12/27 08:07:34;;;;;;;;;64.00;50.00;;;;;-2.84;84.14;99134.22;6276126;20;2492983;-42
2021/12/27 08:10:06;;;;;;;;;63.00;50.00;;;;;-2.57;83.76;99133.75;6280614;20;2866953;-43
2021/12/27 08:12:37;;;;;;;;;64.50;49.00;;;;;-2.86;84.84;99136.88;6280601;20;2857641;-42
2021/12/27 08:15:08;;;;;;;;;71.00;58.00;;;;;-2.65;84.34;99133.03;6278483;20;2499228;-42
2021/12/27 08:17:37;;;;;;;;;74.50;59.00;;;;;-2.45;83.74;99133.56;6275629;20;2500281;-43
2021/12/27 08:20:08;;;;;;;;;65.50;51.00;;;;;-2.45;83.49;99132.66;6281797;20;2881563;-44
2021/12/27 08:22:37;;;;;;;;;55.00;45.00;;;;;-2.48;83.73;99130.94;6278176;20;2881502;-44
2021/12/27 08:25:07;;;;;;;;;61.50;49.00;;;;;-2.34;82.76;99137.72;6280884;20;2861512;-43
2021/12/27 08:27:39;;;;;;;;;66.00;50.00;;;;;-2.37;82.13;99132.53;6276017;20;2495113;-42
2021/12/27 08:30:10;;;;;;;;;57.00;46.33;;;;;-2.34;82.71;99137.72;6275806;20;2878451;-45
2021/12/27 08:32:43;;;;;;;;;65.50;49.50;;;;;-2.24;81.81;99134.03;6311885;20;2884625;-43
2021/12/27 08:35:14;;;;;;;;;68.50;51.00;;;;;-2.30;82.50;99134.16;6280819;20;2856064;-43
2021/12/27 08:37:44;;;;;;;;;37.50;27.50;;;;;-2.21;81.59;99128.75;6281592;20;2861992;-42
2021/12/27 08:40:14;;;;;;;;;61.50;45.50;;;;;-2.05;80.63;99130.16;6279447;20;2872348;-42
2021/12/27 08:42:42;;;;;;;;;64.00;49.50;;;;;-2.09;80.79;99120.59;6274009;20;2497177;-42
2021/12/27 08:45:12;;;;;;;;;85.50;66.00;;;;;-1.87;80.06;99122.78;6283374;20;2882765;-43
2021/12/27 08:47:41;;;;;;;;;71.50;50.00;;;;;-2.04;81.42;99129.25;6284426;20;2876429;-42
2021/12/27 08:50:12;;;;;;;;;67.50;50.00;;;;;-1.83;80.08;99127.09;6286198;20;2875252;-41
2021/12/27 08:52:41;;;;;;;;;53.50;46.50;;;;;-1.81;78.70;99135.84;6281127;20;2496093;-42
2021/12/27 08:55:11;;;;;;;;;67.50;54.00;;;;;-1.78;79.19;99138.41;6280081;20;2500267;-42
2021/12/27 08:57:42;;;;;;;;;67.00;52.00;;;;;-1.55;78.28;99137.94;6284262;20;2866919;-42
2021/12/27 09:00:17;;;;;;;;;63.50;49.00;;;;;-1.50;78.02;99145.72;6283359;20;2865897;-42
2021/12/27 09:02:47;;;;;;;;;67.50;49.50;;;;;-1.77;78.11;99145.38;6281025;20;2866946;-43
2021/12/27 09:05:15;;;;;;;;;53.00;45.00;;;;;-1.53;77.88;99140.50;6280565;20;2496134;-44
2021/12/27 09:07:43;;;;;;;;;70.00;53.00;;;;;-1.42;77.76;99142.03;6280381;20;2496260;-43
2021/12/27 09:10:11;;;;;;;;;70.00;54.00;;;;;-1.46;78.13;99148.25;6277794;20;2500259;-42
2021/12/27 09:12:41;;;;;;;;;63.00;51.00;;;;;-1.41;77.72;99135.84;6284268;20;2861861;-43
2021/12/27 09:15:11;;;;;;;;;59.00;46.00;;;;;-1.31;75.77;99133.88;6283635;20;2873197;-43
2021/12/27 09:17:39;;;;;;;;;71.00;56.00;;;;;-1.21;77.72;99140.69;6280551;20;2489818;-44
2021/12/27 09:20:09;;;;;;;;;58.67;41.00;;;;;-1.40;77.17;99139.34;6284052;20;2880511;-42
2021/12/27 09:22:38;;;;;;;;;80.50;58.50;;;;;-1.27;76.84;99135.53;6314453;20;2879517;-42
2021/12/27 09:25:09;;;;;;;;;60.33;44.67;;;;;-1.16;74.44;99136.19;6283973;20;2883754;-42
2021/12/27 09:27:38;;;;;;;;;65.33;49.67;;;;;-1.18;73.58;99126.59;6314700;20;2882642;-41
2021/12/27 09:30:09;;;;;;;;;63.50;48.50;;;;;-1.15;74.32;99127.38;6314398;20;2869038;-44
2021/12/27 09:32:38;;;;;;;;;69.00;53.00;;;;;-0.96;72.92;99124.28;6282049;20;2869046;-41
2021/12/27 09:35:08;;;;;;;;;51.50;41.50;;;;;-1.01;71.89;99120.91;6283480;20;2864858;-42
2021/12/27 09:37:38;;;;;;;;;62.33;39.67;;;;;-0.98;70.96;99121.69;6284808;20;3643027;-41
2021/12/27 09:40:08;;;;;;;;;41.00;31.00;;;;;-0.96;69.55;99124.28;6311756;20;2500261;-43
2021/12/27 09:42:36;;;;;;;;;56.00;45.50;;;;;-1.02;70.47;99114.78;6282739;20;2856178;-41
2021/12/27 09:45:08;;;;;;;;;67.50;54.00;;;;;-0.99;69.91;99124.38;6281823;20;2490944;-41
2021/12/27 09:47:38;;;;;;;;;51.67;38.33;;;;;-0.79;70.87;99119.50;6282427;20;2883582;-42
2021/12/27 09:50:49;;;;;;;;;44.50;39.00;;;;;-0.75;69.04;99125.53;6313318;20;2854461;-41
2021/12/27 09:53:18;;;;;;;;;53.67;43.00;;;;;-0.69;68.93;99117.47;6282788;20;3632220;-41
2021/12/27 09:56:00;;;;;;;;;67.00;50.50;;;;;-0.87;68.00;99124.06;6311895;20;2887762;-42
2021/12/27 09:58:28;;;;;;;;;47.50;31.50;;;;;-0.63;67.88;99122.63;6282105;20;2897155;-42
2021/12/27 10:01:02;;;;;;;;;25.00;19.67;;;;;-0.55;67.16;99117.16;6280379;20;3559628;-42
2021/12/27 10:03:45;;;;;;;;;50.50;44.50;;;;;-0.68;69.88;99106.03;6281535;20;2855563;-42
2021/12/27 10:06:16;;;;;;;;;45.00;42.00;;;;;-0.54;68.82;99108.31;6281958;20;2500347;-42
2021/12/27 10:09:04;;;;;;;;;42.00;34.50;;;;;-0.68;71.41;99109.53;6284320;20;2857539;-44
2021/12/27 10:11:38;;;;;;;;;36.00;33.00;;;;;-0.59;68.29;99103.16;6278330;20;2848208;-41
2021/12/27 10:14:24;;;;;;;;;40.00;32.00;;;;;-0.91;68.66;99099.56;6281891;20;2871335;-43
2021/12/27 10:17:10;;;;;;;;;22.00;17.67;;;;;-0.91;68.51;99098.72;6280569;20;3559676;-42
2021/12/27 10:19:39;;;;;;;;;34.50;24.00;;;;;-0.38;67.20;99101.72;6313659;20;2846228;-42
2021/12/27 10:22:12;;;;;;;;;56.00;47.00;;;;;-0.37;66.58;99102.59;6283065;20;2755678;-43
2021/12/27 10:24:41;;;;;;;;;32.00;24.67;;;;;-0.53;68.50;99097.72;6311176;20;3580466;-42
2021/12/27 10:27:09;;;;;;;;;71.00;57.50;;;;;-0.35;66.66;99098.16;6279060;20;2500267;-42
2021/12/27 10:29:40;;;;;;;;;57.50;46.50;;;;;-0.48;66.99;99089.69;6282094;20;2879805;-42
2021/12/27 10:32:18;;;;;;;;;24.00;21.00;;;;;-0.58;69.37;99093.47;6284114;20;2810710;-43
2021/12/27 10:34:51;;;;;;;;;12.00;11.00;;;;;-0.70;68.11;99095.53;6281843;20;2793120;-42
2021/12/27 10:37:32;;;;;;;;;31.33;19.00;;;;;-0.44;67.54;99099.25;6281827;20;3589905;-42
2021/12/27 10:40:12;;;;;;;;;32.00;29.50;;;;;-0.29;68.33;99095.34;6314488;20;2846070;-42
2021/12/27 10:42:44;;;;;;;;;28.00;23.00;;;;;-0.33;66.97;99094.56;6278963;20;2508570;-42
2021/12/27 10:45:22;;;;;;;;;20.67;20.67;;;;;-0.43;67.16;99098.34;6282619;20;3559597;-42
2021/12/27 10:47:54;;;;;;;;;35.50;29.00;;;;;-0.30;66.79;99097.13;6279123;20;2500287;-42
2021/12/27 10:50:30;;;;;;;;;21.67;17.67;;;;;-0.07;64.85;99096.50;6281857;20;3559813;-42
2021/12/27 10:53:08;;;;;;;;;28.67;21.67;;;;;-0.20;67.51;99089.81;6312437;20;3557550;-43
2021/12/27 10:55:44;;;;;;;;;14.00;11.33;;;;;-0.12;67.07;99092.25;6278691;20;3526397;-42
2021/12/27 10:58:28;;;;;;;;;43.00;36.00;;;;;0.01;66.91;99082.22;6312450;20;2508753;-42
2021/12/27 11:01:11;;;;;;;;;24.00;19.00;;;;;-0.14;68.83;99078.22;6281695;20;2829466;-41
2021/12/27 11:03:43;;;;;;;;;25.00;20.67;;;;;-0.45;67.40;99084.34;6280030;20;3561713;-42
2021/12/27 11:06:22;;;;;;;;;4.00;1.33;;;;;0.05;66.82;99078.56;6311743;20;3454387;-41
2021/12/27 11:08:51;;;;;;;;;27.50;23.00;;;;;0.01;66.14;99077.81;6313752;20;2494117;-42
2021/12/27 11:11:24;;;;;;;;;28.50;26.00;;;;;-0.10;67.30;99071.97;6278035;20;2500234;-42
2021/12/27 11:13:56;;;;;;;;;27.33;14.67;;;;;0.17;69.23;99068.53;6282968;20;3580431;-42
2021/12/27 11:16:28;;;;;;;;;43.67;33.67;;;;;0.14;66.86;99063.34;6309947;20;2859744;-41
2021/12/27 11:18:58;;;;;;;;;19.00;12.00;;;;;0.13;67.13;99063.38;6308181;20;2779519;-41
2021/12/27 11:21:45;;;;;;;;;25.00;23.00;;;;;0.24;65.81;99060.41;6279595;20;3573238;-41